createdAt,value
2019-05-12T00:00:43.054Z,101602.00
2019-05-12T00:03:15.831Z,101603.00
2019-05-12T00:05:49.278Z,101600.00
2019-05-12T00:08:19.874Z,101602.00
2019-05-12T00:10:50.913Z,101605.00
2019-05-12T00:13:21.713Z,101615.00
2019-05-12T00:15:52.096Z,101616.00
2019-05-12T00:18:22.654Z,101622.00
2019-05-12T00:20:53.415Z,101625.00
2019-05-12T00:23:27.991Z,101622.00
2019-05-12T00:25:58.209Z,101629.00
2019-05-12T00:28:28.479Z,101631.00
2019-05-12T00:30:59.012Z,101642.00
2019-05-12T00:33:29.387Z,101646.00
2019-05-12T00:36:01.216Z,101646.00
2019-05-12T00:38:31.752Z,101653.00
2019-05-12T00:41:02.119Z,101668.00
2019-05-12T00:43:32.508Z,101668.00
2019-05-12T00:46:02.824Z,101669.00
2019-05-12T00:48:33.205Z,101685.00
2019-05-12T00:51:04.119Z,101680.00
2019-05-12T00:53:39.758Z,101682.00
2019-05-12T00:56:08.337Z,101691.00
2019-05-12T00:58:38.473Z,101695.00
2019-05-12T01:01:09.887Z,101693.00
2019-05-12T01:03:40.346Z,101697.00
2019-05-12T01:06:10.792Z,101700.00
2019-05-12T01:08:41.241Z,101716.00
2019-05-12T01:11:11.660Z,101707.00
2019-05-12T01:13:42.127Z,101719.00
2019-05-12T01:16:15.525Z,101713.00
2019-05-12T01:19:05.083Z,101720.00
2019-05-12T01:21:39.722Z,101723.00
2019-05-12T01:24:10.176Z,101729.00
2019-05-12T01:26:40.686Z,101726.00
2019-05-12T01:29:11.048Z,101738.00
2019-05-12T01:31:48.701Z,101743.00
2019-05-12T01:34:19.056Z,101726.00
2019-05-12T01:36:49.442Z,101736.00
2019-05-12T01:39:19.864Z,101749.00
2019-05-12T01:41:50.312Z,101751.00
2019-05-12T01:44:39.704Z,101763.00
2019-05-12T01:47:10.138Z,101770.00
2019-05-12T01:49:40.580Z,101769.00
2019-05-12T01:52:11.014Z,101773.00
2019-05-12T01:54:41.398Z,101787.00
2019-05-12T01:57:11.836Z,101789.00
2019-05-12T01:59:42.288Z,101795.00
2019-05-12T02:02:12.636Z,101787.00
2019-05-12T02:05:00.337Z,101799.00
2019-05-12T02:07:32.483Z,101815.00
2019-05-12T02:10:02.943Z,101811.00
2019-05-12T02:12:33.347Z,101823.00
2019-05-12T02:15:03.775Z,101821.00
2019-05-12T02:17:34.265Z,101824.00
2019-05-12T02:20:05.065Z,101831.00
2019-05-12T02:22:38.858Z,101836.00
2019-05-12T02:25:11.153Z,101830.00
2019-05-12T02:27:41.545Z,101836.00
2019-05-12T02:30:12.706Z,101825.00
2019-05-12T02:32:52.175Z,101831.00
2019-05-12T02:35:16.302Z,101843.00
2019-05-12T02:37:46.839Z,101841.00
2019-05-12T02:40:17.552Z,101845.00
2019-05-12T02:42:47.956Z,101847.00
2019-05-12T02:45:21.179Z,101847.00
2019-05-12T02:47:54.147Z,101849.00
2019-05-12T02:50:38.462Z,101850.00
2019-05-12T02:53:08.828Z,101870.00
2019-05-12T02:55:39.503Z,101862.00
2019-05-12T02:58:14.966Z,101861.00
2019-05-12T03:00:45.872Z,101869.00
2019-05-12T03:03:19.286Z,101881.00
2019-05-12T03:05:51.022Z,101878.00
2019-05-12T03:08:25.624Z,101881.00
2019-05-12T03:10:55.471Z,101886.00
2019-05-12T03:13:25.708Z,101891.00
2019-05-12T03:15:55.941Z,101882.00
2019-05-12T03:18:26.141Z,101889.00
2019-05-12T03:20:56.448Z,101900.00
2019-05-12T03:23:29.801Z,101888.00
2019-05-12T03:26:00.162Z,101891.00
2019-05-12T03:28:30.510Z,101893.00
2019-05-12T03:31:07.702Z,101905.00
2019-05-12T03:33:43.185Z,101898.00
2019-05-12T03:36:09.852Z,101907.00
2019-05-12T03:38:40.427Z,101912.00
2019-05-12T03:41:10.986Z,101914.00
2019-05-12T03:43:44.853Z,101916.00
2019-05-12T03:46:15.792Z,101914.00
2019-05-12T03:48:46.216Z,101919.00
2019-05-12T03:51:16.983Z,101923.00
2019-05-12T03:53:47.486Z,101931.00
2019-05-12T03:56:17.979Z,101926.00
2019-05-12T03:58:48.424Z,101930.00
2019-05-12T04:01:19.036Z,101940.00
2019-05-12T04:03:49.549Z,101942.00
2019-05-12T04:06:20.052Z,101940.00
2019-05-12T04:08:50.558Z,101950.00
2019-05-12T04:11:21.203Z,101967.00
2019-05-12T04:13:54.808Z,101966.00
2019-05-12T04:16:24.811Z,101969.00
2019-05-12T04:18:55.732Z,101962.00
2019-05-12T04:21:26.359Z,101984.00
2019-05-12T04:23:56.907Z,101975.00
2019-05-12T04:26:29.447Z,101973.00
2019-05-12T04:29:00.029Z,101980.00
2019-05-12T04:31:30.793Z,101976.00
2019-05-12T04:34:01.306Z,101980.00
2019-05-12T04:36:31.731Z,101976.00
2019-05-12T04:39:04.328Z,101995.00
2019-05-12T04:41:35.391Z,101995.00
2019-05-12T04:44:06.458Z,102000.00
2019-05-12T04:46:37.296Z,102006.00
2019-05-12T04:49:08.042Z,102001.00
2019-05-12T04:51:38.736Z,102002.00
2019-05-12T04:54:09.236Z,102011.00
2019-05-12T04:56:39.751Z,102025.00
2019-05-12T04:59:10.400Z,102021.00
2019-05-12T05:01:41.240Z,102030.00
2019-05-12T05:04:15.148Z,102033.00
2019-05-12T05:06:46.082Z,102027.00
2019-05-12T05:09:16.668Z,102045.00
2019-05-12T05:11:47.123Z,102048.00
2019-05-12T05:14:17.654Z,102049.00
2019-05-12T05:16:48.176Z,102057.00
2019-05-12T05:19:18.742Z,102054.00
2019-05-12T05:21:49.433Z,102063.00
2019-05-12T05:24:19.808Z,102052.00
2019-05-12T05:26:50.332Z,102056.00
2019-05-12T05:29:20.944Z,102060.00
2019-05-12T05:31:53.429Z,102071.00
2019-05-12T05:34:23.804Z,102068.00
2019-05-12T05:36:59.472Z,102076.00
2019-05-12T05:39:26.776Z,102074.00
2019-05-12T05:41:57.279Z,102086.00
2019-05-12T05:44:36.323Z,102086.00
2019-05-12T05:47:04.245Z,102091.00
2019-05-12T05:49:34.748Z,102096.00
2019-05-12T05:52:05.308Z,102103.00
2019-05-12T05:54:38.242Z,102103.00
2019-05-12T05:57:08.389Z,102106.00
2019-05-12T05:59:44.660Z,102100.00
2019-05-12T06:02:15.317Z,102110.00
2019-05-12T06:04:49.833Z,102109.00
2019-05-12T06:07:23.810Z,102122.00
2019-05-12T06:09:53.672Z,102117.00
2019-05-12T06:12:24.383Z,102131.00
2019-05-12T06:14:59.725Z,102130.00
2019-05-12T06:17:27.105Z,102147.00
2019-05-12T06:19:57.698Z,102136.00
2019-05-12T06:22:28.327Z,102126.00
2019-05-12T06:24:59.081Z,102131.00
2019-05-12T06:27:32.710Z,102129.00
2019-05-12T06:30:06.015Z,102135.00
2019-05-12T06:32:34.427Z,102147.00
2019-05-12T06:35:05.982Z,102141.00
2019-05-12T06:37:36.676Z,102147.00
2019-05-12T06:40:07.688Z,102137.00
2019-05-12T06:42:38.220Z,102143.00
2019-05-12T06:45:08.796Z,102145.00
2019-05-12T06:47:43.966Z,102145.00
2019-05-12T06:50:14.300Z,102152.00
2019-05-12T06:52:48.869Z,102161.00
2019-05-12T06:55:15.959Z,102156.00
2019-05-12T06:57:50.151Z,102165.00
2019-05-12T07:00:22.298Z,102172.00
2019-05-12T07:02:53.135Z,102169.00
2019-05-12T07:05:23.407Z,102176.00
2019-05-12T07:07:57.108Z,102180.00
2019-05-12T07:10:46.065Z,102183.00
2019-05-12T07:13:04.548Z,102186.00
2019-05-12T07:15:35.665Z,102184.00
2019-05-12T07:18:10.110Z,102186.00
2019-05-12T07:20:43.371Z,102191.00
2019-05-12T07:23:14.280Z,102191.00
2019-05-12T07:25:45.080Z,102185.00
2019-05-12T07:28:15.677Z,102190.00
2019-05-12T07:30:46.937Z,102190.00
2019-05-12T07:33:17.609Z,102199.00
2019-05-12T07:35:53.262Z,102188.00
2019-05-12T07:38:25.972Z,102191.00
2019-05-12T07:41:00.863Z,102200.00
2019-05-12T07:43:30.251Z,102198.00
2019-05-12T07:46:03.190Z,102187.00
2019-05-12T07:48:33.450Z,102195.00
2019-05-12T07:51:04.414Z,102204.00
2019-05-12T07:53:35.059Z,102203.00
2019-05-12T07:56:06.694Z,102221.00
2019-05-12T07:58:40.965Z,102215.00
2019-05-12T08:01:11.110Z,102213.00
2019-05-12T08:03:43.520Z,102220.00
2019-05-12T08:06:14.290Z,102223.00
2019-05-12T08:08:50.553Z,102231.00
2019-05-12T08:11:16.948Z,102214.00
2019-05-12T08:13:47.235Z,102225.00
2019-05-12T08:16:19.617Z,102222.00
2019-05-12T08:18:49.825Z,102221.00
2019-05-12T08:21:20.395Z,102236.00
2019-05-12T08:23:53.218Z,102225.00
2019-05-12T08:26:23.950Z,102223.00
2019-05-12T08:28:54.506Z,102216.00
2019-05-12T08:31:31.857Z,102225.00
2019-05-12T08:33:57.138Z,102230.00
2019-05-12T08:36:27.727Z,102232.00
2019-05-12T08:38:58.117Z,102230.00
2019-05-12T08:41:28.634Z,102231.00
2019-05-12T08:44:04.747Z,102234.00
2019-05-12T08:46:35.412Z,102228.00
2019-05-12T08:49:05.866Z,102239.00
2019-05-12T08:51:36.287Z,102240.00
2019-05-12T08:54:08.167Z,102242.00
2019-05-12T08:56:39.318Z,102230.00
2019-05-12T08:59:14.849Z,102235.00
2019-05-12T09:01:43.725Z,102249.00
2019-05-12T09:04:18.089Z,102238.00
2019-05-12T09:06:50.249Z,102248.00
2019-05-12T09:09:18.422Z,102249.00
2019-05-12T09:11:49.012Z,102246.00
2019-05-12T09:14:19.726Z,102241.00
2019-05-12T09:16:53.719Z,102255.00
2019-05-12T09:19:26.698Z,102255.00
2019-05-12T09:21:56.020Z,102253.00
2019-05-12T09:24:27.367Z,102247.00
2019-05-12T09:26:59.084Z,102250.00
2019-05-12T09:29:30.652Z,102253.00
2019-05-12T09:32:07.397Z,102258.00
2019-05-12T09:34:33.725Z,102257.00
2019-05-12T09:37:04.355Z,102253.00
2019-05-12T09:39:42.639Z,102260.00
2019-05-12T09:42:06.969Z,102271.00
2019-05-12T09:44:37.343Z,102264.00
2019-05-12T09:47:21.804Z,102253.00
2019-05-12T09:49:39.832Z,102274.00
2019-05-12T09:52:21.987Z,102258.00
2019-05-12T09:54:48.727Z,102249.00
2019-05-12T09:57:19.313Z,102259.00
2019-05-12T09:59:57.262Z,102261.00
2019-05-12T10:02:23.787Z,102277.00
2019-05-12T10:04:56.555Z,102284.00
2019-05-12T10:07:27.052Z,102274.00
2019-05-12T10:09:59.111Z,102270.00
2019-05-12T10:12:29.961Z,102278.00
2019-05-12T10:15:01.038Z,102266.00
2019-05-12T10:17:33.865Z,102280.00
2019-05-12T10:20:03.846Z,102288.00
2019-05-12T10:22:40.323Z,102291.00
2019-05-12T10:25:10.891Z,102283.00
2019-05-12T10:27:41.443Z,102283.00
2019-05-12T10:30:16.697Z,102282.00
2019-05-12T10:32:44.602Z,102278.00
2019-05-12T10:35:20.946Z,102295.00
2019-05-12T10:37:50.215Z,102291.00
2019-05-12T10:40:23.228Z,102286.00
2019-05-12T10:42:53.609Z,102292.00
2019-05-12T10:45:26.498Z,102289.00
2019-05-12T10:47:57.124Z,102299.00
2019-05-12T10:50:27.714Z,102292.00
2019-05-12T10:52:58.426Z,102302.00
2019-05-12T10:55:28.969Z,102300.00
2019-05-12T10:58:02.017Z,102307.00
2019-05-12T11:00:33.828Z,102306.00
2019-05-12T11:03:10.782Z,102296.00
2019-05-12T11:05:36.641Z,102304.00
2019-05-12T11:08:10.943Z,102307.00
2019-05-12T11:10:39.702Z,102311.00
2019-05-12T11:13:10.481Z,102323.00
2019-05-12T11:15:46.112Z,102313.00
2019-05-12T11:18:20.474Z,102310.00
2019-05-12T11:20:47.700Z,102319.00
2019-05-12T11:23:18.463Z,102330.00
2019-05-12T11:25:49.056Z,102328.00
2019-05-12T11:28:19.764Z,102328.00
2019-05-12T11:30:50.466Z,102313.00
2019-05-12T11:33:21.167Z,102309.00
2019-05-12T11:35:54.137Z,102324.00
2019-05-12T11:38:26.292Z,102320.00
2019-05-12T11:40:57.417Z,102337.00
2019-05-12T11:43:29.742Z,102326.00
2019-05-12T11:46:01.339Z,102330.00
2019-05-12T11:48:33.832Z,102325.00
2019-05-12T11:51:07.190Z,102326.00
2019-05-12T11:53:37.896Z,102333.00
2019-05-12T11:56:09.367Z,102332.00
2019-05-12T11:58:41.238Z,102338.00
2019-05-12T12:01:14.024Z,102339.00
2019-05-12T12:03:44.678Z,102334.00
2019-05-12T12:06:15.400Z,102332.00
2019-05-12T12:08:45.966Z,102353.00
2019-05-12T12:11:24.295Z,102347.00
2019-05-12T12:13:53.427Z,102358.00
2019-05-12T12:16:23.858Z,102344.00
2019-05-12T12:19:02.875Z,102348.00
2019-05-12T12:21:34.298Z,102355.00
2019-05-12T12:24:04.180Z,102352.00
2019-05-12T12:26:37.533Z,102344.00
2019-05-12T12:29:08.333Z,102343.00
2019-05-12T12:31:49.784Z,102356.00
2019-05-12T12:34:25.394Z,102358.00
2019-05-12T12:36:54.721Z,102348.00
2019-05-12T12:39:25.363Z,102357.00
2019-05-12T12:42:00.434Z,102373.00
2019-05-12T12:44:28.736Z,102368.00
2019-05-12T12:47:01.663Z,102356.00
2019-05-12T12:49:33.913Z,102363.00
2019-05-12T12:52:04.285Z,102350.00
2019-05-12T12:54:34.860Z,102365.00
2019-05-12T12:57:09.793Z,102369.00
2019-05-12T12:59:42.915Z,102384.00
2019-05-12T13:02:09.889Z,102388.00
2019-05-12T13:04:46.028Z,102387.00
2019-05-12T13:07:13.732Z,102373.00
2019-05-12T13:09:44.465Z,102376.00
2019-05-12T13:12:19.503Z,102369.00
2019-05-12T13:14:47.250Z,102383.00
2019-05-12T13:17:19.308Z,102371.00
2019-05-12T13:19:56.666Z,102387.00
2019-05-12T13:22:24.385Z,102397.00
2019-05-12T13:24:58.242Z,102405.00
2019-05-12T13:27:29.049Z,102395.00
2019-05-12T13:30:01.787Z,102404.00
2019-05-12T13:32:37.918Z,102391.00
2019-05-12T13:35:09.869Z,102391.00
2019-05-12T13:37:38.620Z,102389.00
2019-05-12T13:40:09.425Z,102393.00
2019-05-12T13:42:39.965Z,102391.00
2019-05-12T13:45:13.961Z,102404.00
2019-05-12T13:47:43.959Z,102413.00
2019-05-12T13:50:21.706Z,102405.00
2019-05-12T13:52:48.629Z,102421.00
2019-05-12T13:55:21.303Z,102419.00
2019-05-12T13:57:57.636Z,102431.00
2019-05-12T14:00:24.947Z,102427.00
2019-05-12T14:03:07.148Z,102419.00
2019-05-12T14:05:31.330Z,102420.00
2019-05-12T14:08:03.886Z,102425.00
2019-05-12T14:10:37.391Z,102423.00
2019-05-12T14:13:07.474Z,102430.00
2019-05-12T14:15:38.806Z,102428.00
2019-05-12T14:18:15.095Z,102445.00
2019-05-12T14:20:45.100Z,102427.00
2019-05-12T14:23:15.860Z,102435.00
2019-05-12T14:25:49.510Z,102439.00
2019-05-12T14:28:25.488Z,102449.00
2019-05-12T14:30:58.974Z,102443.00
2019-05-12T14:33:35.974Z,102444.00
2019-05-12T14:36:04.093Z,102451.00
2019-05-12T14:38:36.229Z,102450.00
2019-05-12T14:41:11.579Z,102458.00
2019-05-12T14:43:45.578Z,102450.00
2019-05-12T14:46:14.995Z,102446.00
2019-05-12T14:48:50.316Z,102455.00
2019-05-12T14:51:19.363Z,102449.00
2019-05-12T14:53:53.531Z,102457.00
2019-05-12T14:56:25.374Z,102450.00
2019-05-12T14:59:00.496Z,102447.00
2019-05-12T15:01:48.444Z,102455.00
2019-05-12T15:04:05.058Z,102453.00
2019-05-12T15:06:34.913Z,102465.00
2019-05-12T15:09:11.403Z,102458.00
2019-05-12T15:11:40.509Z,102444.00
2019-05-12T15:14:11.111Z,102442.00
2019-05-12T15:16:44.243Z,102439.00
2019-05-12T15:19:14.181Z,102439.00
2019-05-12T15:21:44.934Z,102453.00
2019-05-12T15:24:18.913Z,102457.00
2019-05-12T15:26:50.572Z,102448.00
2019-05-12T15:29:23.298Z,102460.00
2019-05-12T15:31:56.708Z,102463.00
2019-05-12T15:34:25.830Z,102457.00
2019-05-12T15:36:58.484Z,102460.00
2019-05-12T15:39:29.058Z,102468.00
2019-05-12T15:41:59.753Z,102469.00
2019-05-12T15:44:32.087Z,102460.00
2019-05-12T15:47:04.198Z,102470.00
2019-05-12T15:49:34.951Z,102468.00
2019-05-12T15:52:05.708Z,102472.00
2019-05-12T15:54:45.773Z,102471.00
2019-05-12T15:57:09.906Z,102472.00
2019-05-12T15:59:40.594Z,102472.00
2019-05-12T16:02:16.217Z,102480.00
2019-05-12T16:04:48.258Z,102483.00
2019-05-12T16:07:18.922Z,102485.00
2019-05-12T16:09:49.661Z,102492.00
2019-05-12T16:12:26.116Z,102502.00
2019-05-12T16:14:54.040Z,102506.00
2019-05-12T16:17:27.139Z,102498.00
2019-05-12T16:19:57.478Z,102497.00
2019-05-12T16:22:30.652Z,102491.00
2019-05-12T16:25:04.113Z,102496.00
2019-05-12T16:27:37.193Z,102504.00
2019-05-12T16:30:09.030Z,102510.00
2019-05-12T16:32:46.431Z,102501.00
2019-05-12T16:35:20.217Z,102514.00
2019-05-12T16:37:48.946Z,102520.00
2019-05-12T16:40:19.915Z,102522.00
2019-05-12T16:42:56.233Z,102520.00
2019-05-12T16:45:23.821Z,102528.00
2019-05-12T16:47:59.234Z,102536.00
2019-05-12T16:50:28.059Z,102531.00
2019-05-12T16:52:59.584Z,102535.00
2019-05-12T16:55:30.760Z,102529.00
2019-05-12T16:58:03.840Z,102537.00
2019-05-12T17:00:39.660Z,102536.00
2019-05-12T17:03:06.594Z,102548.00
2019-05-12T17:05:37.685Z,102537.00
2019-05-12T17:08:08.906Z,102545.00
2019-05-12T17:10:40.046Z,102545.00
2019-05-12T17:13:13.923Z,102555.00
2019-05-12T17:15:48.799Z,102550.00
2019-05-12T17:18:16.886Z,102549.00
2019-05-12T17:20:50.898Z,102568.00
2019-05-12T17:23:20.775Z,102554.00
2019-05-12T17:25:51.768Z,102575.00
2019-05-12T17:28:23.825Z,102571.00
2019-05-12T17:30:57.911Z,102575.00
2019-05-12T17:33:28.857Z,102579.00
2019-05-12T17:36:03.144Z,102588.00
2019-05-12T17:38:34.425Z,102583.00
2019-05-12T17:41:04.955Z,102591.00
2019-05-12T17:43:36.013Z,102588.00
2019-05-12T17:46:07.471Z,102601.00
2019-05-12T17:48:42.910Z,102599.00
2019-05-12T17:51:10.504Z,102608.00
2019-05-12T17:53:43.243Z,102608.00
2019-05-12T17:56:14.034Z,102606.00
2019-05-12T17:58:47.438Z,102608.00
2019-05-12T18:01:23.108Z,102611.00
2019-05-12T18:03:50.832Z,102617.00
2019-05-12T18:06:26.715Z,102613.00
2019-05-12T18:08:54.321Z,102625.00
2019-05-12T18:11:25.742Z,102623.00
2019-05-12T18:14:02.488Z,102628.00
2019-05-12T18:16:34.000Z,102639.00
2019-05-12T18:19:08.840Z,102642.00
2019-05-12T18:21:39.200Z,102642.00
2019-05-12T18:24:11.910Z,102635.00
2019-05-12T18:26:47.060Z,102651.00
2019-05-12T18:29:15.412Z,102657.00
2019-05-12T18:31:46.467Z,102655.00
2019-05-12T18:34:21.233Z,102655.00
2019-05-12T18:36:55.842Z,102667.00
2019-05-12T18:39:27.735Z,102667.00
2019-05-12T18:41:58.987Z,102660.00
2019-05-12T18:44:31.600Z,102673.00
2019-05-12T18:47:04.340Z,102671.00
2019-05-12T18:49:35.676Z,102683.00
2019-05-12T18:52:06.981Z,102684.00
2019-05-12T18:54:45.593Z,102687.00
2019-05-12T18:57:11.014Z,102688.00
2019-05-12T18:59:48.467Z,102697.00
2019-05-12T19:02:22.826Z,102690.00
2019-05-12T19:04:47.536Z,102703.00
2019-05-12T19:07:18.027Z,102704.00
2019-05-12T19:09:48.451Z,102705.00
2019-05-12T19:12:22.546Z,102708.00
2019-05-12T19:14:54.803Z,102709.00
2019-05-12T19:17:25.256Z,102712.00
2019-05-12T19:19:59.804Z,102709.00
2019-05-12T19:22:30.671Z,102728.00
2019-05-12T19:25:01.038Z,102733.00
2019-05-12T19:27:31.598Z,102736.00
2019-05-12T19:30:04.156Z,102732.00
2019-05-12T19:32:36.814Z,102732.00
2019-05-12T19:35:09.384Z,102744.00
2019-05-12T19:37:38.015Z,102759.00
2019-05-12T19:40:12.374Z,102755.00
2019-05-12T19:42:40.735Z,102758.00
2019-05-12T19:45:21.299Z,102765.00
2019-05-12T19:47:44.515Z,102768.00
2019-05-12T19:50:18.815Z,102763.00
2019-05-12T19:52:49.625Z,102762.00
2019-05-12T19:55:20.333Z,102768.00
2019-05-12T19:57:50.935Z,102763.00
2019-05-12T20:00:21.344Z,102761.00
2019-05-12T20:02:53.769Z,102769.00
2019-05-12T20:05:23.939Z,102778.00
2019-05-12T20:07:54.365Z,102774.00
2019-05-12T20:10:24.691Z,102784.00
2019-05-12T20:12:57.079Z,102775.00
2019-05-12T20:15:30.122Z,102784.00
2019-05-12T20:18:01.295Z,102782.00
2019-05-12T20:20:36.524Z,102789.00
2019-05-12T20:23:03.710Z,102788.00
2019-05-12T20:25:34.160Z,102799.00
2019-05-12T20:28:11.063Z,102783.00
2019-05-12T20:30:38.734Z,102788.00
2019-05-12T20:33:09.267Z,102800.00
2019-05-12T20:35:47.347Z,102799.00
2019-05-12T20:38:14.507Z,102797.00
2019-05-12T20:40:44.058Z,102806.00
2019-05-12T20:43:14.914Z,102807.00
2019-05-12T20:45:45.864Z,102807.00
2019-05-12T20:48:19.716Z,102810.00
2019-05-12T20:50:48.620Z,102811.00
2019-05-12T20:53:24.756Z,102816.00
2019-05-12T20:55:51.183Z,102815.00
2019-05-12T20:58:26.567Z,102821.00
2019-05-12T21:00:53.877Z,102821.00
2019-05-12T21:03:24.425Z,102836.00
2019-05-12T21:05:58.089Z,102829.00
2019-05-12T21:08:29.610Z,102844.00
2019-05-12T21:11:00.069Z,102836.00
2019-05-12T21:13:31.962Z,102841.00
2019-05-12T21:16:15.727Z,102843.00
2019-05-12T21:18:46.450Z,102840.00
2019-05-12T21:21:06.887Z,102844.00
2019-05-12T21:23:37.251Z,102850.00
2019-05-12T21:26:07.864Z,102864.00
2019-05-12T21:28:46.202Z,102861.00
2019-05-12T21:31:11.019Z,102863.00
2019-05-12T21:33:41.789Z,102860.00
2019-05-12T21:36:15.764Z,102850.00
2019-05-12T21:38:44.467Z,102859.00
2019-05-12T21:41:15.624Z,102870.00
2019-05-12T21:43:46.122Z,102870.00
2019-05-12T21:46:16.585Z,102866.00
2019-05-12T21:48:47.017Z,102869.00
2019-05-12T21:51:19.902Z,102872.00
2019-05-12T21:53:56.172Z,102871.00
2019-05-12T21:56:24.529Z,102870.00
2019-05-12T21:58:58.229Z,102879.00
2019-05-12T22:01:27.202Z,102884.00
2019-05-12T22:04:02.025Z,102896.00
2019-05-12T22:06:29.534Z,102895.00
2019-05-12T22:09:03.779Z,102885.00
2019-05-12T22:11:42.307Z,102890.00
2019-05-12T22:14:09.240Z,102898.00
2019-05-12T22:16:44.339Z,102899.00
2019-05-12T22:19:13.246Z,102891.00
2019-05-12T22:21:49.094Z,102905.00
2019-05-12T22:24:15.640Z,102897.00
2019-05-12T22:26:46.786Z,102910.00
2019-05-12T22:29:21.141Z,102906.00
2019-05-12T22:31:49.280Z,102901.00
2019-05-12T22:34:19.722Z,102907.00
2019-05-12T22:36:55.349Z,102913.00
2019-05-12T22:39:23.650Z,102919.00
2019-05-12T22:41:54.035Z,102907.00
2019-05-12T22:44:25.102Z,102915.00
2019-05-12T22:46:55.719Z,102911.00
2019-05-12T22:49:26.137Z,102913.00
2019-05-12T22:52:02.606Z,102913.00
2019-05-12T22:54:28.695Z,102918.00
2019-05-12T22:56:59.489Z,102919.00
2019-05-12T22:59:34.325Z,102923.00
2019-05-12T23:02:04.195Z,102921.00
2019-05-12T23:04:35.802Z,102911.00
2019-05-12T23:07:06.689Z,102929.00
2019-05-12T23:09:37.145Z,102927.00
2019-05-12T23:12:09.668Z,102921.00
2019-05-12T23:14:39.558Z,102926.00
2019-05-12T23:17:10.102Z,102916.00
2019-05-12T23:19:45.355Z,102923.00
2019-05-12T23:22:14.204Z,102925.00
2019-05-12T23:24:44.727Z,102921.00
2019-05-12T23:27:18.827Z,102924.00
2019-05-12T23:29:47.209Z,102931.00
2019-05-12T23:32:18.288Z,102929.00
2019-05-12T23:34:54.119Z,102922.00
2019-05-12T23:37:20.728Z,102927.00
2019-05-12T23:39:53.366Z,102928.00
2019-05-12T23:42:23.712Z,102927.00
2019-05-12T23:44:55.380Z,102941.00
2019-05-12T23:47:25.722Z,102924.00
2019-05-12T23:49:56.277Z,102921.00
2019-05-12T23:52:26.615Z,102931.00
2019-05-12T23:54:57.057Z,102919.00
2019-05-12T23:57:27.445Z,102926.00
2019-05-12T23:59:57.943Z,102922.00
